createdAt,value
2023-02-23T00:00:23.735Z,5.8
2023-02-23T00:01:39.930Z,5.8
2023-02-23T00:02:56.000Z,5.8
2023-02-23T00:04:12.000Z,5.8
2023-02-23T00:05:10.507Z,5.8
2023-02-23T00:06:44.699Z,5.8
2023-02-23T00:08:00.899Z,5.8
2023-02-23T00:09:16.000Z,5.8
2023-02-23T00:10:14.295Z,5.8
2023-02-23T00:11:48.489Z,5.8
2023-02-23T00:13:04.681Z,5.8
2023-02-23T00:14:20.000Z,5.8
2023-02-23T00:15:37.083Z,5.8
2023-02-23T00:16:53.000Z,5.8
2023-02-23T00:17:51.453Z,5.8
2023-02-23T00:19:25.000Z,5.8
2023-02-23T00:20:23.839Z,5.8
2023-02-23T00:21:58.032Z,5.8
2023-02-23T00:23:14.000Z,5.7
2023-02-23T00:24:30.426Z,5.8
2023-02-23T00:25:46.611Z,5.7
2023-02-23T00:27:02.804Z,5.7
2023-02-23T00:28:19.000Z,5.7
2023-02-23T00:29:35.000Z,5.7
2023-02-23T00:30:51.385Z,5.7
2023-02-23T00:32:24.000Z,5.7
2023-02-23T00:33:22.786Z,5.7
2023-02-23T00:34:38.000Z,5.7
2023-02-23T00:35:37.172Z,5.7
2023-02-23T00:37:11.000Z,5.7
2023-02-23T00:38:27.000Z,5.6
2023-02-23T00:39:43.753Z,5.6
2023-02-23T00:40:59.956Z,5.6
2023-02-23T00:41:58.136Z,5.6
2023-02-23T00:43:14.329Z,5.6
2023-02-23T00:44:48.000Z,5.6
2023-02-23T00:46:04.725Z,5.6
2023-02-23T00:47:02.908Z,5.6
2023-02-23T00:48:37.000Z,5.6
2023-02-23T00:49:53.297Z,5.6
2023-02-23T00:51:09.487Z,5.6
2023-02-23T00:52:25.000Z,5.6
2023-02-23T00:53:59.000Z,5.6
2023-02-23T00:54:57.000Z,5.6
2023-02-23T00:56:13.276Z,5.6
2023-02-23T00:57:29.470Z,5.6
2023-02-23T00:58:27.661Z,5.6
2023-02-23T01:00:01.000Z,5.5
2023-02-23T01:01:00.047Z,5.5
2023-02-23T01:02:34.258Z,5.5
2023-02-23T01:03:50.434Z,5.5
2023-02-23T01:05:06.000Z,5.5
2023-02-23T01:06:04.820Z,5.5
2023-02-23T01:07:39.013Z,5.5
2023-02-23T01:08:55.000Z,5.5
2023-02-23T01:10:11.405Z,5.5
2023-02-23T01:11:26.627Z,5.5
2023-02-23T01:13:00.000Z,5.5
2023-02-23T01:13:59.001Z,5.5
2023-02-23T01:15:15.000Z,5.5
2023-02-23T01:16:31.000Z,5.5
2023-02-23T01:17:29.572Z,5.5
2023-02-23T01:18:45.766Z,5.4
2023-02-23T01:20:19.000Z,5.4
2023-02-23T01:21:18.152Z,5.4
2023-02-23T01:22:52.344Z,5.4
2023-02-23T01:24:08.537Z,5.4
2023-02-23T01:25:24.000Z,5.4
2023-02-23T01:26:58.000Z,5.4
2023-02-23T01:27:39.116Z,5.4
2023-02-23T01:29:13.000Z,5.4
2023-02-23T01:30:29.000Z,5.4
2023-02-23T01:32:03.000Z,5.4
2023-02-23T01:33:01.905Z,5.4
2023-02-23T01:34:36.000Z,5.4
2023-02-23T01:35:52.000Z,5.4
2023-02-23T01:36:50.470Z,5.4
2023-02-23T01:38:06.000Z,5.4
2023-02-23T01:39:04.974Z,5.4
2023-02-23T01:40:21.167Z,5.4
2023-02-23T01:41:55.360Z,5.3
2023-02-23T01:43:11.561Z,5.3
2023-02-23T01:44:27.753Z,5.3
2023-02-23T01:45:43.000Z,5.3
2023-02-23T01:46:42.133Z,5.3
2023-02-23T01:48:16.000Z,5.3
2023-02-23T01:49:32.527Z,5.3
2023-02-23T01:50:48.000Z,5.3
2023-02-23T01:51:46.905Z,5.3
2023-02-23T01:53:21.000Z,5.3
2023-02-23T01:54:37.000Z,5.3
2023-02-23T01:55:35.485Z,5.3
2023-02-23T01:56:51.678Z,5.3
2023-02-23T01:58:25.000Z,5.3
2023-02-23T01:59:24.064Z,5.3
2023-02-23T02:00:58.256Z,5.3
2023-02-23T02:01:56.450Z,5.3
2023-02-23T02:03:30.764Z,5.3
2023-02-23T02:04:28.956Z,5.2
2023-02-23T02:05:45.149Z,5.2
2023-02-23T02:07:19.342Z,5.2
2023-02-23T02:08:35.000Z,5.2
2023-02-23T02:09:51.730Z,5.2
2023-02-23T02:11:07.934Z,5.2
2023-02-23T02:12:06.114Z,5.2
2023-02-23T02:13:40.310Z,5.2
2023-02-23T02:14:38.500Z,5.2
2023-02-23T02:16:12.697Z,5.2
2023-02-23T02:17:28.902Z,5.2
2023-02-23T02:19:03.000Z,5.2
2023-02-23T02:20:01.272Z,5.2
2023-02-23T02:21:35.000Z,5.2
2023-02-23T02:22:15.658Z,5.2
2023-02-23T02:23:48.000Z,5.2
2023-02-23T02:24:47.060Z,5.2
2023-02-23T02:26:03.253Z,5.2
2023-02-23T02:27:19.446Z,5.1
2023-02-23T02:28:35.640Z,5.1
2023-02-23T02:29:51.833Z,5.1
2023-02-23T02:31:26.000Z,5.1
2023-02-23T02:32:42.000Z,5.1
2023-02-23T02:33:40.412Z,5.1
2023-02-23T02:35:32.000Z,5.1
2023-02-23T02:36:30.000Z,5.1
2023-02-23T02:37:28.991Z,5.1
2023-02-23T02:39:03.000Z,5.1
2023-02-23T02:40:01.378Z,5.1
2023-02-23T02:41:17.571Z,5.1
2023-02-23T02:42:51.000Z,5.1
2023-02-23T02:44:07.960Z,5.1
2023-02-23T02:45:24.000Z,5.1
2023-02-23T02:46:40.000Z,5
2023-02-23T02:47:38.536Z,5
2023-02-23T02:48:53.746Z,5
2023-02-23T02:50:45.000Z,5
2023-02-23T02:51:26.132Z,5
2023-02-23T02:53:00.326Z,5
2023-02-23T02:54:16.000Z,5
2023-02-23T02:55:32.000Z,5
2023-02-23T02:56:48.917Z,5
2023-02-23T02:58:05.098Z,5
2023-02-23T02:59:39.000Z,5
2023-02-23T03:00:19.483Z,5
2023-02-23T03:01:53.000Z,5
2023-02-23T03:02:51.869Z,5
2023-02-23T03:04:08.062Z,5
2023-02-23T03:05:42.275Z,5
2023-02-23T03:06:57.481Z,5
2023-02-23T03:08:13.662Z,5
2023-02-23T03:09:29.000Z,5
2023-02-23T03:10:46.000Z,5
2023-02-23T03:12:02.000Z,4.9
2023-02-23T03:13:00.431Z,4.9
2023-02-23T03:14:34.637Z,4.9
2023-02-23T03:15:32.817Z,4.9
2023-02-23T03:17:07.000Z,4.9
2023-02-23T03:18:23.000Z,4.9
2023-02-23T03:19:57.000Z,4.9
2023-02-23T03:20:37.589Z,4.9
2023-02-23T03:21:53.782Z,4.9
2023-02-23T03:23:27.975Z,4.9
2023-02-23T03:24:44.000Z,4.9
2023-02-23T03:26:00.373Z,4.9
2023-02-23T03:27:15.000Z,4.9
2023-02-23T03:28:13.764Z,4.9
2023-02-23T03:29:29.956Z,4.9
2023-02-23T03:31:04.000Z,4.8
2023-02-23T03:32:19.000Z,4.8
2023-02-23T03:33:35.000Z,4.8
2023-02-23T03:34:51.764Z,4.8
2023-02-23T03:36:07.945Z,4.8
2023-02-23T03:37:42.133Z,4.8
2023-02-23T03:38:40.000Z,4.8
2023-02-23T03:39:56.000Z,4.8
2023-02-23T03:40:54.717Z,4.8
2023-02-23T03:42:28.920Z,4.8
2023-02-23T03:43:45.000Z,4.8
2023-02-23T03:45:01.000Z,4.8
2023-02-23T03:45:59.490Z,4.8
2023-02-23T03:47:33.000Z,4.8
2023-02-23T03:48:49.000Z,4.8
2023-02-23T03:50:06.000Z,4.7
2023-02-23T03:51:04.262Z,4.7
2023-02-23T03:52:55.000Z,4.7
2023-02-23T03:53:35.665Z,4.7
2023-02-23T03:55:09.857Z,4.7
2023-02-23T03:56:08.051Z,4.7
2023-02-23T03:57:24.244Z,4.7
2023-02-23T03:58:40.437Z,4.7
2023-02-23T04:00:14.630Z,4.7
2023-02-23T04:01:30.000Z,4.7
2023-02-23T04:02:47.000Z,4.7
2023-02-23T04:03:45.209Z,4.6
2023-02-23T04:05:19.000Z,4.6
2023-02-23T04:06:17.595Z,4.6
2023-02-23T04:07:51.802Z,4.6
2023-02-23T04:08:49.981Z,4.6
2023-02-23T04:10:24.000Z,4.6
2023-02-23T04:11:40.000Z,4.6
2023-02-23T04:12:56.000Z,4.6
2023-02-23T04:14:12.874Z,4.6
2023-02-23T04:15:29.083Z,4.6
2023-02-23T04:16:45.000Z,4.6
2023-02-23T04:18:01.000Z,4.6
2023-02-23T04:18:59.648Z,4.6
2023-02-23T04:20:15.841Z,4.6
2023-02-23T04:21:50.034Z,4.6
2023-02-23T04:22:48.227Z,4.5
2023-02-23T04:24:04.420Z,4.5
2023-02-23T04:25:38.000Z,4.5
2023-02-23T04:26:54.806Z,4.5
2023-02-23T04:28:11.020Z,4.5
2023-02-23T04:29:09.193Z,4.5
2023-02-23T04:30:24.403Z,4.5
2023-02-23T04:31:40.596Z,4.5
2023-02-23T04:33:14.000Z,4.5
2023-02-23T04:34:12.982Z,4.5
2023-02-23T04:35:47.000Z,4.5
2023-02-23T04:36:45.368Z,4.5
2023-02-23T04:38:37.000Z,4.5
2023-02-23T04:39:35.000Z,4.5
2023-02-23T04:40:51.000Z,4.5
2023-02-23T04:41:50.140Z,4.4
2023-02-23T04:43:24.000Z,4.4
2023-02-23T04:44:40.000Z,4.4
2023-02-23T04:45:56.000Z,4.4
2023-02-23T04:46:54.913Z,4.4
2023-02-23T04:48:29.000Z,4.4
2023-02-23T04:49:27.420Z,4.4
2023-02-23T04:51:01.000Z,4.4
2023-02-23T04:52:17.807Z,4.4
2023-02-23T04:53:34.000Z,4.4
2023-02-23T04:54:50.207Z,4.4
2023-02-23T04:56:06.000Z,4.4
2023-02-23T04:57:04.579Z,4.4
2023-02-23T04:58:38.000Z,4.4
2023-02-23T04:59:36.966Z,4.3
2023-02-23T05:01:11.164Z,4.3
2023-02-23T05:02:09.353Z,4.3
2023-02-23T05:03:43.000Z,4.3
2023-02-23T05:04:59.739Z,4.3
2023-02-23T05:06:15.937Z,4.3
2023-02-23T05:07:32.135Z,4.3
2023-02-23T05:08:47.000Z,4.4
2023-02-23T05:10:03.541Z,4.3
2023-02-23T05:11:19.000Z,4.3
2023-02-23T05:12:17.914Z,4.3
2023-02-23T05:13:52.124Z,4.3
2023-02-23T05:14:50.300Z,4.3
2023-02-23T05:16:24.000Z,4.3
2023-02-23T05:17:40.686Z,4.3
2023-02-23T05:18:56.000Z,4.3
2023-02-23T05:19:55.073Z,4.3
2023-02-23T05:21:11.265Z,4.3
2023-02-23T05:22:45.464Z,4.3
2023-02-23T05:23:43.652Z,4.3
2023-02-23T05:25:16.000Z,4.2
2023-02-23T05:26:33.000Z,4.2
2023-02-23T05:27:31.247Z,4.2
2023-02-23T05:29:05.000Z,4.2
2023-02-23T05:30:21.000Z,4.2
2023-02-23T05:31:37.000Z,4.2
2023-02-23T05:33:12.000Z,4.2
2023-02-23T05:34:10.000Z,4.2
2023-02-23T05:35:08.407Z,4.2
2023-02-23T05:36:24.600Z,4.2
2023-02-23T05:37:40.793Z,4.1
2023-02-23T05:39:15.000Z,4.1
2023-02-23T05:40:13.179Z,4.1
2023-02-23T05:41:47.000Z,4.1
2023-02-23T05:43:03.566Z,4.1
2023-02-23T05:44:19.782Z,4.1
2023-02-23T05:45:35.963Z,4.1
2023-02-23T05:46:33.163Z,4.1
2023-02-23T05:47:49.355Z,4.1
2023-02-23T05:49:23.000Z,4.1
2023-02-23T05:50:21.741Z,4
2023-02-23T05:51:55.951Z,4
2023-02-23T05:52:54.128Z,4
2023-02-23T05:54:28.343Z,4
2023-02-23T05:55:44.514Z,4
2023-02-23T05:57:00.707Z,4
2023-02-23T05:58:16.000Z,4
2023-02-23T05:59:33.093Z,4
2023-02-23T06:00:31.287Z,4
2023-02-23T06:02:05.503Z,4
2023-02-23T06:03:02.689Z,3.9
2023-02-23T06:04:36.882Z,3.9
2023-02-23T06:05:53.086Z,3.9
2023-02-23T06:07:09.270Z,3.9
2023-02-23T06:08:25.000Z,3.9
2023-02-23T06:09:41.679Z,3.9
2023-02-23T06:10:39.850Z,3.9
2023-02-23T06:12:14.000Z,3.9
2023-02-23T06:13:12.236Z,3.9
2023-02-23T06:14:28.429Z,3.9
2023-02-23T06:15:44.623Z,3.9
2023-02-23T06:17:18.000Z,3.9
2023-02-23T06:18:17.010Z,3.9
2023-02-23T06:19:50.000Z,3.9
2023-02-23T06:21:06.000Z,3.9
2023-02-23T06:22:04.606Z,3.9
2023-02-23T06:23:20.799Z,3.9
2023-02-23T06:24:55.000Z,3.9
2023-02-23T06:26:11.206Z,3.9
2023-02-23T06:27:27.000Z,3.9
2023-02-23T06:28:43.585Z,3.9
2023-02-23T06:29:59.788Z,3.9
2023-02-23T06:31:15.965Z,3.9
2023-02-23T06:32:32.000Z,3.9
2023-02-23T06:33:48.000Z,3.9
2023-02-23T06:35:04.000Z,3.9
2023-02-23T06:36:02.732Z,3.9
2023-02-23T06:37:37.000Z,3.9
2023-02-23T06:38:53.249Z,3.9
2023-02-23T06:40:09.453Z,3.9
2023-02-23T06:41:07.628Z,3.9
2023-02-23T06:42:41.000Z,3.9
2023-02-23T06:43:40.015Z,3.9
2023-02-23T06:45:14.000Z,3.9
2023-02-23T06:46:30.000Z,4
2023-02-23T06:47:28.595Z,4
2023-02-23T06:48:44.789Z,4
2023-02-23T06:50:18.000Z,4
2023-02-23T06:51:35.209Z,4
2023-02-23T06:52:51.395Z,4.1
2023-02-23T06:54:07.589Z,4.1
2023-02-23T06:55:41.000Z,4.1
2023-02-23T06:56:40.085Z,4.1
2023-02-23T06:57:56.000Z,4.1
2023-02-23T06:59:12.458Z,4.1
2023-02-23T07:00:28.000Z,4.1
2023-02-23T07:01:26.845Z,4.1
2023-02-23T07:03:01.000Z,4.2
2023-02-23T07:04:17.242Z,4.2
2023-02-23T07:05:33.000Z,4.2
2023-02-23T07:06:31.618Z,4.2
2023-02-23T07:07:47.811Z,4.3
2023-02-23T07:09:04.005Z,4.3
2023-02-23T07:10:38.000Z,4.3
2023-02-23T07:11:54.391Z,4.3
2023-02-23T07:13:10.584Z,4.3
2023-02-23T07:14:08.777Z,4.4
2023-02-23T07:15:43.000Z,4.4
2023-02-23T07:16:59.000Z,4.4
2023-02-23T07:18:15.491Z,4.4
2023-02-23T07:19:13.670Z,4.4
2023-02-23T07:20:47.000Z,4.5
2023-02-23T07:22:04.064Z,4.5
2023-02-23T07:23:20.256Z,4.5
2023-02-23T07:24:36.000Z,4.5
2023-02-23T07:25:52.000Z,4.5
2023-02-23T07:26:50.830Z,4.6
2023-02-23T07:28:25.000Z,4.6
2023-02-23T07:29:41.000Z,4.6
2023-02-23T07:31:15.000Z,4.6
2023-02-23T07:31:55.602Z,4.6
2023-02-23T07:33:11.794Z,4.6
2023-02-23T07:34:46.002Z,4.6
2023-02-23T07:36:01.000Z,4.7
2023-02-23T07:37:17.390Z,4.7
2023-02-23T07:38:33.590Z,4.7
2023-02-23T07:39:31.777Z,4.7
2023-02-23T07:40:47.970Z,4.7
2023-02-23T07:42:04.165Z,4.7
2023-02-23T07:43:38.359Z,4.7
2023-02-23T07:44:36.554Z,4.7
2023-02-23T07:45:52.748Z,4.7
2023-02-23T07:47:26.000Z,4.8
2023-02-23T07:48:25.136Z,4.8
2023-02-23T07:49:58.000Z,4.8
2023-02-23T07:51:14.548Z,4.8
2023-02-23T07:52:30.742Z,4.9
2023-02-23T07:53:46.945Z,4.9
2023-02-23T07:55:03.147Z,4.9
2023-02-23T07:56:19.341Z,4.9
2023-02-23T07:57:35.529Z,5
2023-02-23T07:58:51.715Z,5
2023-02-23T08:00:07.000Z,5
2023-02-23T08:01:24.000Z,5
2023-02-23T08:02:40.299Z,5
2023-02-23T08:03:56.494Z,5
2023-02-23T08:05:12.709Z,5
2023-02-23T08:06:27.000Z,5
2023-02-23T08:07:26.095Z,5
2023-02-23T08:09:00.312Z,5
2023-02-23T08:10:16.494Z,5.1
2023-02-23T08:11:14.680Z,5.1
2023-02-23T08:12:30.875Z,5.1
2023-02-23T08:14:05.000Z,5.1
2023-02-23T08:15:21.265Z,5.1
2023-02-23T08:16:37.460Z,5.2
2023-02-23T08:17:53.673Z,5.2
2023-02-23T08:19:27.000Z,5.2
2023-02-23T08:20:08.044Z,5.2
2023-02-23T08:21:42.240Z,5.3
2023-02-23T08:22:40.434Z,5.3
2023-02-23T08:24:13.000Z,5.3
2023-02-23T08:25:11.839Z,5.3
2023-02-23T08:26:28.035Z,5.3
2023-02-23T08:28:02.000Z,5.3
2023-02-23T08:29:18.425Z,5.3
2023-02-23T08:30:16.619Z,5.3
2023-02-23T08:32:08.000Z,5.3
2023-02-23T08:32:49.009Z,5.4
2023-02-23T08:34:23.228Z,5.4
2023-02-23T08:35:39.419Z,5.5
2023-02-23T08:36:55.000Z,5.5
2023-02-23T08:38:11.805Z,5.6
2023-02-23T08:39:28.000Z,5.7
2023-02-23T08:40:44.000Z,5.7
2023-02-23T08:42:00.000Z,5.7
2023-02-23T08:42:58.569Z,5.6
2023-02-23T08:44:32.000Z,5.7
2023-02-23T08:45:31.080Z,5.7
2023-02-23T08:47:05.000Z,5.7
2023-02-23T08:48:21.487Z,5.7
2023-02-23T08:49:37.665Z,5.7
2023-02-23T08:50:53.000Z,5.8
2023-02-23T08:52:10.000Z,5.8
2023-02-23T08:53:26.250Z,5.8
2023-02-23T08:54:42.000Z,5.8
2023-02-23T08:55:40.640Z,5.8
2023-02-23T08:57:14.835Z,5.8
2023-02-23T08:58:31.058Z,5.8
2023-02-23T08:59:47.000Z,5.9
2023-02-23T09:01:03.000Z,5.9
2023-02-23T09:02:18.642Z,6
2023-02-23T09:03:16.825Z,6
2023-02-23T09:04:51.000Z,6
2023-02-23T09:06:07.215Z,6
2023-02-23T09:07:23.000Z,6
2023-02-23T09:08:21.605Z,6
2023-02-23T09:09:55.800Z,6
2023-02-23T09:11:12.021Z,6
2023-02-23T09:12:28.214Z,6
2023-02-23T09:13:26.385Z,6.1
2023-02-23T09:15:00.000Z,6.1
2023-02-23T09:16:16.000Z,6.1
2023-02-23T09:17:32.000Z,6.1
2023-02-23T09:18:49.165Z,6.1
2023-02-23T09:20:05.000Z,6.1
2023-02-23T09:21:21.564Z,6.2
2023-02-23T09:22:36.000Z,6.2
2023-02-23T09:23:52.988Z,6.2
2023-02-23T09:26:07.352Z,6.2
2023-02-23T09:27:41.569Z,6.2
2023-02-23T09:28:39.742Z,6.2
2023-02-23T09:30:13.938Z,6.2
2023-02-23T09:31:30.000Z,6.2
2023-02-23T09:32:28.328Z,6.3
2023-02-23T09:34:02.543Z,6.3
2023-02-23T09:35:00.718Z,6.3
2023-02-23T09:36:16.913Z,6.4
2023-02-23T09:37:51.000Z,6.4
2023-02-23T09:38:49.303Z,6.4
2023-02-23T09:40:22.540Z,6.5
2023-02-23T09:41:20.709Z,6.5
2023-02-23T09:42:54.919Z,6.5
2023-02-23T09:44:11.099Z,6.6
2023-02-23T09:45:27.000Z,6.6
2023-02-23T09:46:25.489Z,6.7
2023-02-23T09:47:59.000Z,6.7
2023-02-23T09:48:57.880Z,6.8
2023-02-23T09:50:32.089Z,6.8
2023-02-23T09:51:48.000Z,6.9
2023-02-23T09:53:04.000Z,6.9
2023-02-23T09:54:02.660Z,6.9
2023-02-23T09:55:36.882Z,7
2023-02-23T09:56:53.051Z,7
2023-02-23T09:58:09.000Z,7.1
2023-02-23T09:59:07.441Z,7.1
2023-02-23T10:00:41.000Z,7.2
2023-02-23T10:01:57.000Z,7.2
2023-02-23T10:03:14.000Z,7.3
2023-02-23T10:04:12.222Z,7.3
2023-02-23T10:05:45.000Z,7.3
2023-02-23T10:06:43.629Z,7.4
2023-02-23T10:08:17.000Z,7.4
2023-02-23T10:09:34.000Z,7.5
2023-02-23T10:10:50.230Z,7.6
2023-02-23T10:11:48.410Z,7.5
2023-02-23T10:13:22.000Z,7.6
2023-02-23T10:14:20.801Z,7.7
2023-02-23T10:15:55.000Z,7.8
2023-02-23T10:16:53.191Z,7.8
2023-02-23T10:18:27.414Z,7.9
2023-02-23T10:19:43.000Z,8
2023-02-23T10:20:59.790Z,8
2023-02-23T10:22:14.988Z,8.2
2023-02-23T10:23:31.184Z,8.2
2023-02-23T10:24:47.393Z,8.2
2023-02-23T10:26:03.575Z,8.3
2023-02-23T10:27:19.770Z,8.3
2023-02-23T10:28:35.978Z,8.3
2023-02-23T10:29:34.160Z,8.4
2023-02-23T10:31:08.000Z,8.5
2023-02-23T10:32:06.550Z,8.5
2023-02-23T10:33:40.000Z,8.6
2023-02-23T10:34:56.940Z,8.7
2023-02-23T10:36:13.000Z,8.7
2023-02-23T10:37:29.353Z,8.7
2023-02-23T10:38:45.526Z,8.6
2023-02-23T10:40:01.746Z,8.6
2023-02-23T10:41:16.932Z,8.6
2023-02-23T10:42:33.125Z,8.6
2023-02-23T10:43:49.335Z,8.6
2023-02-23T10:44:47.515Z,8.7
2023-02-23T10:46:21.711Z,8.8
2023-02-23T10:47:37.000Z,8.8
2023-02-23T10:48:54.114Z,8.8
2023-02-23T10:50:10.315Z,8.8
2023-02-23T10:51:26.507Z,8.8
2023-02-23T10:52:42.701Z,8.8
2023-02-23T10:53:58.000Z,8.8
2023-02-23T10:55:15.000Z,8.8
2023-02-23T10:56:31.270Z,8.9
2023-02-23T10:57:47.000Z,9
2023-02-23T10:59:03.678Z,9
2023-02-23T11:00:19.855Z,9.1
2023-02-23T11:01:36.000Z,9.1
2023-02-23T11:02:52.255Z,9.2
2023-02-23T11:03:50.562Z,9.2
2023-02-23T11:05:06.756Z,9.3
2023-02-23T11:06:40.967Z,9.3
2023-02-23T11:07:39.146Z,9.4
2023-02-23T11:09:13.000Z,9.4
2023-02-23T11:10:29.554Z,9.5
2023-02-23T11:11:45.000Z,9.5
2023-02-23T11:13:01.925Z,9.6
2023-02-23T11:14:18.000Z,9.6
2023-02-23T11:15:16.315Z,9.5
2023-02-23T11:16:50.511Z,9.4
2023-02-23T11:17:48.705Z,9.5
2023-02-23T11:19:40.000Z,9.5
2023-02-23T11:20:21.095Z,9.5
2023-02-23T11:21:37.412Z,9.5
2023-02-23T11:23:11.624Z,9.6
2023-02-23T11:24:27.000Z,9.6
2023-02-23T11:25:43.997Z,9.7
2023-02-23T11:27:00.000Z,9.8
2023-02-23T11:28:16.411Z,9.9
2023-02-23T11:29:32.593Z,9.9
2023-02-23T11:30:48.788Z,10.1
2023-02-23T11:32:04.000Z,10.1
2023-02-23T11:33:21.181Z,10.1
2023-02-23T11:34:37.361Z,10.1
2023-02-23T11:35:35.556Z,10.1
2023-02-23T11:37:09.000Z,10.1
2023-02-23T11:38:25.946Z,10.1
2023-02-23T11:39:42.141Z,10.2
2023-02-23T11:40:58.355Z,10.2
2023-02-23T11:42:13.576Z,10.2
2023-02-23T11:43:11.741Z,10.2
2023-02-23T11:44:45.936Z,10.3
2023-02-23T11:46:02.131Z,10.3
2023-02-23T11:47:18.326Z,10.4
2023-02-23T11:48:16.521Z,10.5
2023-02-23T11:49:50.000Z,10.6
2023-02-23T11:51:06.911Z,10.8
2023-02-23T11:52:23.106Z,10.8
2023-02-23T11:53:39.323Z,10.9
2023-02-23T11:54:55.000Z,10.9
2023-02-23T11:56:11.705Z,10.9
2023-02-23T11:57:27.887Z,11
2023-02-23T11:58:44.100Z,11
2023-02-23T11:59:42.277Z,11
2023-02-23T12:01:16.472Z,11
2023-02-23T12:02:32.667Z,11
2023-02-23T12:03:48.000Z,11.1
2023-02-23T12:05:05.085Z,11.1
2023-02-23T12:06:21.265Z,11
2023-02-23T12:07:18.470Z,11
2023-02-23T12:08:34.666Z,10.9
2023-02-23T12:10:08.000Z,11
2023-02-23T12:11:25.000Z,11.2
2023-02-23T12:12:23.252Z,11.2
2023-02-23T12:13:39.447Z,11.1
2023-02-23T12:14:55.643Z,11
2023-02-23T12:16:29.838Z,11
2023-02-23T12:17:46.000Z,11
2023-02-23T12:18:44.229Z,11.1
2023-02-23T12:20:18.439Z,11.2
2023-02-23T12:21:16.620Z,11.2
2023-02-23T12:22:50.845Z,11.2
2023-02-23T12:24:06.027Z,11.2
2023-02-23T12:25:22.000Z,11.2
2023-02-23T12:26:20.418Z,11.2
2023-02-23T12:27:36.615Z,11.2
2023-02-23T12:29:10.809Z,11.1
2023-02-23T12:30:27.000Z,11.1
2023-02-23T12:31:25.200Z,11.1
2023-02-23T12:32:59.000Z,11.1
2023-02-23T12:33:57.590Z,11.1
2023-02-23T12:35:31.801Z,11.1
2023-02-23T12:36:47.981Z,11.1
2023-02-23T12:38:04.202Z,11.1
2023-02-23T12:39:02.373Z,11.2
2023-02-23T12:40:36.000Z,11.2
2023-02-23T12:41:52.000Z,11.2
2023-02-23T12:43:08.959Z,11.3
2023-02-23T12:44:07.154Z,11.4
2023-02-23T12:45:41.495Z,11.5
2023-02-23T12:46:39.666Z,11.5
2023-02-23T12:48:13.000Z,11.4
2023-02-23T12:49:12.057Z,11.4
2023-02-23T12:50:46.253Z,11.4
2023-02-23T12:52:02.437Z,11.3
2023-02-23T12:53:18.631Z,11.3
2023-02-23T12:54:34.838Z,11.4
2023-02-23T12:55:51.000Z,11.3
2023-02-23T12:56:49.229Z,11.3
2023-02-23T12:58:05.425Z,11.3
2023-02-23T12:59:21.619Z,11.3
2023-02-23T13:00:55.815Z,11.3
2023-02-23T13:01:54.010Z,11.3
2023-02-23T13:03:28.205Z,11.3
2023-02-23T13:04:44.402Z,11.4
2023-02-23T13:06:00.591Z,11.4
2023-02-23T13:07:16.790Z,11.4
2023-02-23T13:08:51.000Z,11.4
2023-02-23T13:09:31.182Z,11.4
2023-02-23T13:11:04.000Z,11.4
2023-02-23T13:12:02.590Z,11.4
2023-02-23T13:13:36.000Z,11.3
2023-02-23T13:14:52.000Z,11.3
2023-02-23T13:16:09.000Z,11.3
2023-02-23T13:17:07.370Z,11.3
2023-02-23T13:18:41.566Z,11.3
2023-02-23T13:19:57.762Z,11.3
2023-02-23T13:21:13.000Z,11.2
2023-02-23T13:22:30.151Z,11.3
2023-02-23T13:23:46.338Z,11.2
2023-02-23T13:24:44.544Z,11.2
2023-02-23T13:26:18.000Z,11.1
2023-02-23T13:27:52.000Z,11.1
2023-02-23T13:28:51.130Z,11.1
2023-02-23T13:29:49.325Z,11.1
2023-02-23T13:31:22.528Z,11.1
2023-02-23T13:32:38.733Z,11
2023-02-23T13:33:54.000Z,11
2023-02-23T13:34:53.123Z,11
2023-02-23T13:36:27.310Z,11
2023-02-23T13:37:25.513Z,11
2023-02-23T13:38:41.708Z,10.9
2023-02-23T13:39:57.904Z,10.8
2023-02-23T13:41:32.099Z,10.8
2023-02-23T13:42:48.282Z,10.8
2023-02-23T13:44:04.000Z,10.8
2023-02-23T13:45:20.685Z,10.8
2023-02-23T13:46:36.882Z,10.8
2023-02-23T13:47:52.000Z,10.8
2023-02-23T13:49:08.000Z,10.8
2023-02-23T13:50:24.000Z,10.7
2023-02-23T13:51:40.000Z,10.7
2023-02-23T13:52:56.870Z,10.7
2023-02-23T13:54:13.069Z,10.7
2023-02-23T13:55:11.265Z,10.7
2023-02-23T13:56:45.460Z,10.7
2023-02-23T13:58:01.656Z,10.7
2023-02-23T13:59:17.855Z,10.7
2023-02-23T14:00:16.048Z,10.7
2023-02-23T14:01:50.237Z,10.7
2023-02-23T14:02:48.438Z,10.6
2023-02-23T14:04:22.000Z,10.6
2023-02-23T14:05:38.000Z,10.6
2023-02-23T14:06:55.000Z,10.6
2023-02-23T14:08:11.336Z,10.6
2023-02-23T14:09:27.535Z,10.6
2023-02-23T14:10:43.731Z,10.6
2023-02-23T14:11:59.000Z,10.5
2023-02-23T14:12:58.121Z,10.5
2023-02-23T14:14:32.314Z,10.5
2023-02-23T14:15:30.511Z,10.5
2023-02-23T14:17:04.000Z,10.5
2023-02-23T14:18:02.900Z,10.4
2023-02-23T14:19:37.000Z,10.4
2023-02-23T14:20:53.000Z,10.4
2023-02-23T14:21:51.486Z,10.3
2023-02-23T14:23:25.680Z,10.3
2023-02-23T14:24:23.876Z,10.3
2023-02-23T14:25:40.070Z,10.3
2023-02-23T14:27:13.000Z,10.3
2023-02-23T14:28:29.479Z,10.3
2023-02-23T14:29:45.672Z,10.2
2023-02-23T14:30:43.867Z,10.2
2023-02-23T14:32:18.000Z,10.2
2023-02-23T14:33:34.000Z,10.2
2023-02-23T14:34:50.000Z,10.2
2023-02-23T14:36:06.648Z,10.2
2023-02-23T14:37:22.849Z,10.2
2023-02-23T14:38:39.031Z,10.2
2023-02-23T14:39:55.227Z,10.2
2023-02-23T14:41:11.429Z,10.2
2023-02-23T14:42:27.000Z,10.2
2023-02-23T14:43:43.825Z,10.2
2023-02-23T14:45:00.130Z,10.2
2023-02-23T14:45:58.332Z,10.2
2023-02-23T14:47:14.528Z,10.2
2023-02-23T14:48:48.723Z,10.2
2023-02-23T14:50:04.919Z,10.2
2023-02-23T14:51:21.108Z,10.2
2023-02-23T14:52:55.000Z,10.2
2023-02-23T14:53:53.501Z,10.2
2023-02-23T14:55:09.697Z,10.2
2023-02-23T14:56:25.888Z,10.2
2023-02-23T14:57:42.000Z,10.2
2023-02-23T14:58:58.275Z,10.1
2023-02-23T15:00:14.483Z,10.1
2023-02-23T15:01:30.000Z,10.1
2023-02-23T15:02:46.000Z,10.1
2023-02-23T15:04:03.059Z,10.1
2023-02-23T15:05:19.000Z,10.1
2023-02-23T15:06:35.000Z,10.1
2023-02-23T15:07:51.000Z,10.1
2023-02-23T15:08:49.969Z,10.1
2023-02-23T15:10:24.158Z,10
2023-02-23T15:11:40.350Z,10
2023-02-23T15:12:56.000Z,9.9
2023-02-23T15:14:12.750Z,9.9
2023-02-23T15:15:28.936Z,9.9
2023-02-23T15:16:45.134Z,9.9
2023-02-23T15:18:19.000Z,9.8
2023-02-23T15:19:17.000Z,9.8
2023-02-23T15:21:49.916Z,9.8
2023-02-23T15:23:05.133Z,9.7
2023-02-23T15:24:03.328Z,9.7
2023-02-23T15:25:37.000Z,9.7
2023-02-23T15:26:53.000Z,9.7
2023-02-23T15:28:09.000Z,9.7
2023-02-23T15:29:26.094Z,9.7
2023-02-23T15:30:24.303Z,9.7
2023-02-23T15:31:40.499Z,9.7
2023-02-23T15:32:56.694Z,9.7
2023-02-23T15:34:30.877Z,9.6
2023-02-23T15:35:47.000Z,9.6
2023-02-23T15:37:03.269Z,9.6
2023-02-23T15:38:19.000Z,9.6
2023-02-23T15:39:35.000Z,9.6
2023-02-23T15:40:51.862Z,9.6
2023-02-23T15:41:49.076Z,9.6
2023-02-23T15:43:23.000Z,9.6
2023-02-23T15:44:21.466Z,9.6
2023-02-23T15:45:37.662Z,9.6
2023-02-23T15:46:53.857Z,9.5
2023-02-23T15:48:28.053Z,9.5
2023-02-23T15:49:26.248Z,9.5
2023-02-23T15:51:00.444Z,9.5
2023-02-23T15:52:16.638Z,9.5
2023-02-23T15:53:14.834Z,9.5
2023-02-23T15:54:49.019Z,9.5
2023-02-23T15:56:05.000Z,9.5
2023-02-23T15:57:03.419Z,9.5
2023-02-23T15:58:36.000Z,9.5
2023-02-23T15:59:34.827Z,9.5
2023-02-23T16:01:09.000Z,9.5
2023-02-23T16:02:07.217Z,9.5
2023-02-23T16:03:41.000Z,9.5
2023-02-23T16:04:57.608Z,9.5
2023-02-23T16:06:13.000Z,9.5
2023-02-23T16:07:29.993Z,9.4
2023-02-23T16:08:28.193Z,9.4
2023-02-23T16:10:02.384Z,9.4
2023-02-23T16:11:18.574Z,9.4
2023-02-23T16:12:34.777Z,9.4
2023-02-23T16:13:50.000Z,9.4
2023-02-23T16:14:49.169Z,9.4
2023-02-23T16:16:23.486Z,9.4
2023-02-23T16:17:39.681Z,9.4
2023-02-23T16:18:55.879Z,9.4
2023-02-23T16:19:54.071Z,9.3
2023-02-23T16:21:28.267Z,9.3
2023-02-23T16:22:26.461Z,9.3
2023-02-23T16:23:59.000Z,9.3
2023-02-23T16:24:57.873Z,9.3
2023-02-23T16:26:32.074Z,9.3
2023-02-23T16:28:06.000Z,9.3
2023-02-23T16:29:04.000Z,9.3
2023-02-23T16:30:20.000Z,9.3
2023-02-23T16:31:36.855Z,9.3
2023-02-23T16:32:35.046Z,9.3
2023-02-23T16:34:09.242Z,9.3
2023-02-23T16:35:07.437Z,9.3
2023-02-23T16:36:41.000Z,9.3
2023-02-23T16:37:39.830Z,9.3
2023-02-23T16:38:56.026Z,9.3
2023-02-23T16:40:30.219Z,9.3
2023-02-23T16:41:28.417Z,9.3
2023-02-23T16:43:02.612Z,9.3
2023-02-23T16:44:18.000Z,9.3
2023-02-23T16:45:17.003Z,9.3
2023-02-23T16:46:50.000Z,9.3
2023-02-23T16:48:06.410Z,9.3
2023-02-23T16:49:22.607Z,9.3
2023-02-23T16:50:38.792Z,9.3
2023-02-23T16:51:55.000Z,9.3
2023-02-23T16:52:53.194Z,9.2
2023-02-23T16:54:27.000Z,9.2
2023-02-23T16:55:43.000Z,9.2
2023-02-23T16:56:59.000Z,9.2
2023-02-23T16:58:15.974Z,9.2
2023-02-23T16:59:32.000Z,9.2
2023-02-23T17:00:30.366Z,9.2
2023-02-23T17:02:04.000Z,9.2
2023-02-23T17:03:20.000Z,9.1
2023-02-23T17:04:36.952Z,9.1
2023-02-23T17:05:53.141Z,9.1
2023-02-23T17:07:08.000Z,9.1
2023-02-23T17:08:24.000Z,9.1
2023-02-23T17:09:40.751Z,9.1
2023-02-23T17:10:56.947Z,9.1
2023-02-23T17:12:13.000Z,9.1
2023-02-23T17:13:29.330Z,9.1
2023-02-23T17:14:45.000Z,9.1
2023-02-23T17:16:01.722Z,9.1
2023-02-23T17:17:17.916Z,9
2023-02-23T17:18:16.108Z,9
2023-02-23T17:19:50.295Z,9
2023-02-23T17:21:06.495Z,9
2023-02-23T17:22:22.000Z,9
2023-02-23T17:23:20.882Z,9
2023-02-23T17:24:54.093Z,9
2023-02-23T17:26:10.284Z,9
2023-02-23T17:27:08.477Z,9
2023-02-23T17:28:42.668Z,9
2023-02-23T17:29:58.000Z,9
2023-02-23T17:31:15.000Z,9